sensor_id;sensor_type;location;lat;lon;timestamp;P1;durP1;ratioP1;P2;durP2;ratioP2
9256;SDS011;4665;51.368;6.782;2022-11-13T00:01:54;4.40;;;4.00;;
9256;SDS011;4665;51.368;6.782;2022-11-13T00:04:20;4.97;;;4.40;;
9256;SDS011;4665;51.368;6.782;2022-11-13T00:06:45;4.43;;;4.07;;
9256;SDS011;4665;51.368;6.782;2022-11-13T00:09:11;4.43;;;4.03;;
9256;SDS011;4665;51.368;6.782;2022-11-13T00:11:36;4.23;;;3.90;;
9256;SDS011;4665;51.368;6.782;2022-11-13T00:14:02;4.70;;;4.20;;
9256;SDS011;4665;51.368;6.782;2022-11-13T00:16:28;4.90;;;4.40;;
9256;SDS011;4665;51.368;6.782;2022-11-13T00:18:54;5.87;;;4.23;;
9256;SDS011;4665;51.368;6.782;2022-11-13T00:21:20;5.30;;;3.70;;
9256;SDS011;4665;51.368;6.782;2022-11-13T00:23:48;4.87;;;4.43;;
9256;SDS011;4665;51.368;6.782;2022-11-13T00:26:27;5.27;;;4.10;;
9256;SDS011;4665;51.368;6.782;2022-11-13T00:28:54;5.27;;;4.57;;
9256;SDS011;4665;51.368;6.782;2022-11-13T00:31:24;4.90;;;4.40;;
9256;SDS011;4665;51.368;6.782;2022-11-13T00:33:51;5.50;;;5.00;;
9256;SDS011;4665;51.368;6.782;2022-11-13T00:36:18;5.13;;;4.50;;
9256;SDS011;4665;51.368;6.782;2022-11-13T00:38:45;4.60;;;4.20;;
9256;SDS011;4665;51.368;6.782;2022-11-13T00:41:11;5.63;;;4.97;;
9256;SDS011;4665;51.368;6.782;2022-11-13T00:43:37;5.73;;;5.20;;
9256;SDS011;4665;51.368;6.782;2022-11-13T00:46:02;6.20;;;5.60;;
9256;SDS011;4665;51.368;6.782;2022-11-13T00:48:28;5.73;;;5.10;;
9256;SDS011;4665;51.368;6.782;2022-11-13T00:50:53;6.00;;;5.47;;
9256;SDS011;4665;51.368;6.782;2022-11-13T00:53:19;5.60;;;5.10;;
9256;SDS011;4665;51.368;6.782;2022-11-13T00:55:45;5.90;;;5.30;;
9256;SDS011;4665;51.368;6.782;2022-11-13T00:58:11;5.63;;;5.03;;
9256;SDS011;4665;51.368;6.782;2022-11-13T01:00:38;6.07;;;5.20;;
9256;SDS011;4665;51.368;6.782;2022-11-13T01:03:04;7.57;;;6.13;;
9256;SDS011;4665;51.368;6.782;2022-11-13T01:05:30;6.20;;;5.60;;
9256;SDS011;4665;51.368;6.782;2022-11-13T01:08:00;8.07;;;5.40;;
9256;SDS011;4665;51.368;6.782;2022-11-13T01:10:25;5.87;;;5.30;;
9256;SDS011;4665;51.368;6.782;2022-11-13T01:12:52;7.53;;;6.10;;
9256;SDS011;4665;51.368;6.782;2022-11-13T01:15:17;6.27;;;5.67;;
9256;SDS011;4665;51.368;6.782;2022-11-13T01:17:45;7.07;;;5.70;;
9256;SDS011;4665;51.368;6.782;2022-11-13T01:20:10;7.93;;;5.33;;
9256;SDS011;4665;51.368;6.782;2022-11-13T01:22:36;8.00;;;5.87;;
9256;SDS011;4665;51.368;6.782;2022-11-13T01:25:01;7.57;;;5.60;;
9256;SDS011;4665;51.368;6.782;2022-11-13T01:27:27;7.27;;;5.93;;
9256;SDS011;4665;51.368;6.782;2022-11-13T01:29:53;6.80;;;5.87;;
9256;SDS011;4665;51.368;6.782;2022-11-13T01:32:19;6.27;;;5.67;;
9256;SDS011;4665;51.368;6.782;2022-11-13T01:34:45;6.97;;;5.83;;
9256;SDS011;4665;51.368;6.782;2022-11-13T01:37:10;6.07;;;5.50;;
9256;SDS011;4665;51.368;6.782;2022-11-13T01:39:35;6.10;;;5.50;;
9256;SDS011;4665;51.368;6.782;2022-11-13T01:42:01;7.10;;;6.17;;
9256;SDS011;4665;51.368;6.782;2022-11-13T01:44:43;6.27;;;5.67;;
9256;SDS011;4665;51.368;6.782;2022-11-13T01:47:12;5.73;;;5.10;;
9256;SDS011;4665;51.368;6.782;2022-11-13T01:49:37;6.10;;;5.27;;
9256;SDS011;4665;51.368;6.782;2022-11-13T01:52:06;5.93;;;5.33;;
9256;SDS011;4665;51.368;6.782;2022-11-13T01:55:04;6.27;;;5.67;;
9256;SDS011;4665;51.368;6.782;2022-11-13T01:57:42;5.47;;;4.97;;
9256;SDS011;4665;51.368;6.782;2022-11-13T02:00:09;6.33;;;5.73;;
9256;SDS011;4665;51.368;6.782;2022-11-13T02:02:36;5.77;;;5.17;;
9256;SDS011;4665;51.368;6.782;2022-11-13T02:05:02;5.63;;;5.13;;
9256;SDS011;4665;51.368;6.782;2022-11-13T02:07:28;6.70;;;5.73;;
9256;SDS011;4665;51.368;6.782;2022-11-13T02:09:54;7.53;;;5.97;;
9256;SDS011;4665;51.368;6.782;2022-11-13T02:12:26;7.37;;;5.50;;
9256;SDS011;4665;51.368;6.782;2022-11-13T02:15:02;6.13;;;5.40;;
9256;SDS011;4665;51.368;6.782;2022-11-13T02:17:30;6.30;;;5.30;;
9256;SDS011;4665;51.368;6.782;2022-11-13T02:20:03;6.40;;;5.80;;
9256;SDS011;4665;51.368;6.782;2022-11-13T02:25:21;7.17;;;5.97;;
9256;SDS011;4665;51.368;6.782;2022-11-13T02:27:49;7.57;;;6.03;;
9256;SDS011;4665;51.368;6.782;2022-11-13T02:30:16;7.53;;;6.57;;
9256;SDS011;4665;51.368;6.782;2022-11-13T02:32:42;6.63;;;5.27;;
9256;SDS011;4665;51.368;6.782;2022-11-13T02:35:13;5.67;;;5.17;;
9256;SDS011;4665;51.368;6.782;2022-11-13T02:37:41;8.47;;;6.70;;
9256;SDS011;4665;51.368;6.782;2022-11-13T02:40:06;7.83;;;5.90;;
9256;SDS011;4665;51.368;6.782;2022-11-13T02:42:32;8.37;;;6.07;;
9256;SDS011;4665;51.368;6.782;2022-11-13T02:44:58;6.87;;;5.70;;
9256;SDS011;4665;51.368;6.782;2022-11-13T02:47:23;7.77;;;5.87;;
9256;SDS011;4665;51.368;6.782;2022-11-13T02:49:49;7.63;;;6.23;;
9256;SDS011;4665;51.368;6.782;2022-11-13T02:52:14;6.20;;;5.60;;
9256;SDS011;4665;51.368;6.782;2022-11-13T02:54:39;7.07;;;6.20;;
9256;SDS011;4665;51.368;6.782;2022-11-13T02:57:05;7.37;;;5.93;;
9256;SDS011;4665;51.368;6.782;2022-11-13T02:59:30;8.20;;;6.30;;
9256;SDS011;4665;51.368;6.782;2022-11-13T03:01:56;6.60;;;5.90;;
9256;SDS011;4665;51.368;6.782;2022-11-13T03:04:21;8.37;;;6.53;;
9256;SDS011;4665;51.368;6.782;2022-11-13T03:06:47;7.30;;;5.63;;
9256;SDS011;4665;51.368;6.782;2022-11-13T03:09:12;6.23;;;5.63;;
9256;SDS011;4665;51.368;6.782;2022-11-13T03:11:38;6.20;;;5.60;;
9256;SDS011;4665;51.368;6.782;2022-11-13T03:14:03;5.77;;;5.17;;
9256;SDS011;4665;51.368;6.782;2022-11-13T03:16:29;6.13;;;5.53;;
9256;SDS011;4665;51.368;6.782;2022-11-13T03:18:55;6.10;;;5.50;;
9256;SDS011;4665;51.368;6.782;2022-11-13T03:21:21;6.80;;;5.77;;
9256;SDS011;4665;51.368;6.782;2022-11-13T03:23:47;8.30;;;6.03;;
9256;SDS011;4665;51.368;6.782;2022-11-13T03:26:13;7.50;;;6.20;;
9256;SDS011;4665;51.368;6.782;2022-11-13T03:28:41;6.70;;;5.70;;
9256;SDS011;4665;51.368;6.782;2022-11-13T03:31:07;6.53;;;5.73;;
9256;SDS011;4665;51.368;6.782;2022-11-13T03:33:33;8.47;;;6.00;;
9256;SDS011;4665;51.368;6.782;2022-11-13T03:35:58;6.87;;;5.77;;
9256;SDS011;4665;51.368;6.782;2022-11-13T03:38:24;5.70;;;5.20;;
9256;SDS011;4665;51.368;6.782;2022-11-13T03:40:50;6.60;;;5.30;;
9256;SDS011;4665;51.368;6.782;2022-11-13T03:43:15;6.60;;;5.30;;
9256;SDS011;4665;51.368;6.782;2022-11-13T03:45:43;5.87;;;5.10;;
9256;SDS011;4665;51.368;6.782;2022-11-13T03:48:09;5.17;;;4.70;;
9256;SDS011;4665;51.368;6.782;2022-11-13T03:50:34;7.33;;;5.43;;
9256;SDS011;4665;51.368;6.782;2022-11-13T03:53:00;5.60;;;5.10;;
9256;SDS011;4665;51.368;6.782;2022-11-13T03:55:25;5.13;;;4.67;;
9256;SDS011;4665;51.368;6.782;2022-11-13T03:57:51;5.43;;;4.93;;
9256;SDS011;4665;51.368;6.782;2022-11-13T04:00:16;6.20;;;5.60;;
9256;SDS011;4665;51.368;6.782;2022-11-13T04:02:42;5.97;;;5.33;;
9256;SDS011;4665;51.368;6.782;2022-11-13T04:05:07;5.60;;;5.10;;
9256;SDS011;4665;51.368;6.782;2022-11-13T04:07:33;7.43;;;5.67;;
9256;SDS011;4665;51.368;6.782;2022-11-13T04:09:58;5.60;;;5.10;;
9256;SDS011;4665;51.368;6.782;2022-11-13T04:12:24;8.03;;;5.57;;
9256;SDS011;4665;51.368;6.782;2022-11-13T04:14:50;6.17;;;5.43;;
9256;SDS011;4665;51.368;6.782;2022-11-13T04:17:16;5.80;;;5.03;;
9256;SDS011;4665;51.368;6.782;2022-11-13T04:19:41;6.27;;;5.07;;
9256;SDS011;4665;51.368;6.782;2022-11-13T04:22:06;6.07;;;5.33;;
9256;SDS011;4665;51.368;6.782;2022-11-13T04:24:32;5.90;;;5.30;;
9256;SDS011;4665;51.368;6.782;2022-11-13T04:26:57;7.07;;;5.17;;
9256;SDS011;4665;51.368;6.782;2022-11-13T04:29:23;6.07;;;5.23;;
9256;SDS011;4665;51.368;6.782;2022-11-13T04:31:48;7.13;;;5.10;;
9256;SDS011;4665;51.368;6.782;2022-11-13T04:34:14;6.43;;;5.00;;
9256;SDS011;4665;51.368;6.782;2022-11-13T04:36:39;5.40;;;4.90;;
9256;SDS011;4665;51.368;6.782;2022-11-13T04:39:05;5.57;;;5.07;;
9256;SDS011;4665;51.368;6.782;2022-11-13T04:41:31;5.50;;;5.00;;
9256;SDS011;4665;51.368;6.782;2022-11-13T04:44:15;6.47;;;5.23;;
9256;SDS011;4665;51.368;6.782;2022-11-13T04:46:40;6.43;;;5.70;;
9256;SDS011;4665;51.368;6.782;2022-11-13T04:49:06;5.93;;;5.33;;
9256;SDS011;4665;51.368;6.782;2022-11-13T04:51:31;7.60;;;5.13;;
9256;SDS011;4665;51.368;6.782;2022-11-13T04:53:57;5.53;;;4.83;;
9256;SDS011;4665;51.368;6.782;2022-11-13T04:56:22;6.37;;;5.43;;
9256;SDS011;4665;51.368;6.782;2022-11-13T04:58:48;6.73;;;5.73;;
9256;SDS011;4665;51.368;6.782;2022-11-13T05:01:14;6.80;;;5.17;;
9256;SDS011;4665;51.368;6.782;2022-11-13T05:03:40;5.80;;;5.07;;
9256;SDS011;4665;51.368;6.782;2022-11-13T05:06:06;6.13;;;5.53;;
9256;SDS011;4665;51.368;6.782;2022-11-13T05:08:33;6.10;;;5.20;;
9256;SDS011;4665;51.368;6.782;2022-11-13T05:10:59;5.60;;;4.90;;
9256;SDS011;4665;51.368;6.782;2022-11-13T05:13:25;5.67;;;4.67;;
9256;SDS011;4665;51.368;6.782;2022-11-13T05:16:04;5.17;;;4.67;;
9256;SDS011;4665;51.368;6.782;2022-11-13T05:18:32;5.23;;;4.60;;
9256;SDS011;4665;51.368;6.782;2022-11-13T05:20:59;6.33;;;4.87;;
9256;SDS011;4665;51.368;6.782;2022-11-13T05:23:24;5.40;;;4.90;;
9256;SDS011;4665;51.368;6.782;2022-11-13T05:25:50;4.33;;;3.93;;
9256;SDS011;4665;51.368;6.782;2022-11-13T05:28:15;5.37;;;4.43;;
9256;SDS011;4665;51.368;6.782;2022-11-13T05:30:41;5.57;;;4.50;;
9256;SDS011;4665;51.368;6.782;2022-11-13T05:33:07;5.60;;;4.93;;
9256;SDS011;4665;51.368;6.782;2022-11-13T05:35:32;4.70;;;4.20;;
9256;SDS011;4665;51.368;6.782;2022-11-13T05:38:01;6.03;;;4.57;;
9256;SDS011;4665;51.368;6.782;2022-11-13T05:40:27;5.20;;;4.70;;
9256;SDS011;4665;51.368;6.782;2022-11-13T05:42:54;5.67;;;4.93;;
9256;SDS011;4665;51.368;6.782;2022-11-13T05:45:19;6.47;;;4.70;;
9256;SDS011;4665;51.368;6.782;2022-11-13T05:47:45;5.10;;;4.20;;
9256;SDS011;4665;51.368;6.782;2022-11-13T05:50:11;4.73;;;4.23;;
9256;SDS011;4665;51.368;6.782;2022-11-13T05:52:36;6.70;;;4.67;;
9256;SDS011;4665;51.368;6.782;2022-11-13T05:55:01;4.90;;;4.40;;
9256;SDS011;4665;51.368;6.782;2022-11-13T05:57:27;5.87;;;4.47;;
9256;SDS011;4665;51.368;6.782;2022-11-13T05:59:53;4.93;;;4.43;;
9256;SDS011;4665;51.368;6.782;2022-11-13T06:02:18;5.00;;;4.50;;
9256;SDS011;4665;51.368;6.782;2022-11-13T06:04:44;5.00;;;4.40;;
9256;SDS011;4665;51.368;6.782;2022-11-13T06:07:09;4.57;;;4.03;;
9256;SDS011;4665;51.368;6.782;2022-11-13T06:09:34;4.30;;;3.90;;
9256;SDS011;4665;51.368;6.782;2022-11-13T06:12:00;5.77;;;4.00;;
9256;SDS011;4665;51.368;6.782;2022-11-13T06:14:25;5.13;;;3.97;;
9256;SDS011;4665;51.368;6.782;2022-11-13T06:16:51;4.90;;;4.10;;
9256;SDS011;4665;51.368;6.782;2022-11-13T06:19:16;4.13;;;3.73;;
9256;SDS011;4665;51.368;6.782;2022-11-13T06:21:42;4.10;;;3.80;;
9256;SDS011;4665;51.368;6.782;2022-11-13T06:24:08;4.40;;;4.00;;
9256;SDS011;4665;51.368;6.782;2022-11-13T06:26:36;4.40;;;4.00;;
9256;SDS011;4665;51.368;6.782;2022-11-13T06:29:03;4.67;;;3.93;;
9256;SDS011;4665;51.368;6.782;2022-11-13T06:31:31;4.70;;;4.30;;
9256;SDS011;4665;51.368;6.782;2022-11-13T06:33:59;4.73;;;4.00;;
9256;SDS011;4665;51.368;6.782;2022-11-13T06:36:26;4.47;;;4.07;;
9256;SDS011;4665;51.368;6.782;2022-11-13T06:38:53;3.80;;;3.50;;
9256;SDS011;4665;51.368;6.782;2022-11-13T06:41:20;4.33;;;3.93;;
9256;SDS011;4665;51.368;6.782;2022-11-13T06:43:47;4.03;;;3.60;;
9256;SDS011;4665;51.368;6.782;2022-11-13T06:46:16;4.43;;;4.03;;
9256;SDS011;4665;51.368;6.782;2022-11-13T06:48:44;4.50;;;3.90;;
9256;SDS011;4665;51.368;6.782;2022-11-13T06:51:13;3.77;;;3.47;;
9256;SDS011;4665;51.368;6.782;2022-11-13T06:53:43;4.10;;;3.70;;
9256;SDS011;4665;51.368;6.782;2022-11-13T06:56:09;4.40;;;4.00;;
9256;SDS011;4665;51.368;6.782;2022-11-13T06:58:35;3.80;;;3.50;;
9256;SDS011;4665;51.368;6.782;2022-11-13T07:01:08;4.53;;;3.50;;
9256;SDS011;4665;51.368;6.782;2022-11-13T07:03:35;3.90;;;3.57;;
9256;SDS011;4665;51.368;6.782;2022-11-13T07:06:05;4.03;;;3.57;;
9256;SDS011;4665;51.368;6.782;2022-11-13T07:08:38;3.67;;;3.37;;
9256;SDS011;4665;51.368;6.782;2022-11-13T07:11:04;4.30;;;3.50;;
9256;SDS011;4665;51.368;6.782;2022-11-13T07:13:31;4.70;;;4.20;;
9256;SDS011;4665;51.368;6.782;2022-11-13T07:16:00;5.07;;;3.37;;
9256;SDS011;4665;51.368;6.782;2022-11-13T07:18:28;3.80;;;3.50;;
9256;SDS011;4665;51.368;6.782;2022-11-13T07:20:54;3.60;;;3.30;;
9256;SDS011;4665;51.368;6.782;2022-11-13T07:23:20;3.93;;;3.63;;
9256;SDS011;4665;51.368;6.782;2022-11-13T07:25:45;4.40;;;4.00;;
9256;SDS011;4665;51.368;6.782;2022-11-13T07:28:11;3.80;;;3.50;;
9256;SDS011;4665;51.368;6.782;2022-11-13T07:30:36;3.53;;;3.23;;
9256;SDS011;4665;51.368;6.782;2022-11-13T07:33:02;4.77;;;4.10;;
9256;SDS011;4665;51.368;6.782;2022-11-13T07:35:28;4.10;;;3.80;;
9256;SDS011;4665;51.368;6.782;2022-11-13T07:37:54;4.50;;;4.10;;
9256;SDS011;4665;51.368;6.782;2022-11-13T07:40:20;4.60;;;4.20;;
9256;SDS011;4665;51.368;6.782;2022-11-13T07:42:46;5.57;;;3.97;;
9256;SDS011;4665;51.368;6.782;2022-11-13T07:45:11;4.37;;;3.97;;
9256;SDS011;4665;51.368;6.782;2022-11-13T07:47:37;4.30;;;4.00;;
9256;SDS011;4665;51.368;6.782;2022-11-13T07:50:02;5.13;;;3.77;;
9256;SDS011;4665;51.368;6.782;2022-11-13T07:52:28;4.60;;;4.10;;
9256;SDS011;4665;51.368;6.782;2022-11-13T07:54:53;4.47;;;4.07;;
9256;SDS011;4665;51.368;6.782;2022-11-13T07:57:19;5.13;;;4.17;;
9256;SDS011;4665;51.368;6.782;2022-11-13T07:59:46;4.40;;;3.90;;
9256;SDS011;4665;51.368;6.782;2022-11-13T08:02:13;3.93;;;3.50;;
9256;SDS011;4665;51.368;6.782;2022-11-13T08:04:41;4.20;;;3.80;;
9256;SDS011;4665;51.368;6.782;2022-11-13T08:07:06;4.17;;;3.80;;
9256;SDS011;4665;51.368;6.782;2022-11-13T08:09:34;3.77;;;3.47;;
9256;SDS011;4665;51.368;6.782;2022-11-13T08:12:00;4.10;;;3.70;;
9256;SDS011;4665;51.368;6.782;2022-11-13T08:14:25;4.33;;;3.93;;
9256;SDS011;4665;51.368;6.782;2022-11-13T08:16:50;3.50;;;3.20;;
9256;SDS011;4665;51.368;6.782;2022-11-13T08:19:16;4.63;;;3.70;;
9256;SDS011;4665;51.368;6.782;2022-11-13T08:21:41;3.60;;;3.30;;
9256;SDS011;4665;51.368;6.782;2022-11-13T08:24:08;3.80;;;3.07;;
9256;SDS011;4665;51.368;6.782;2022-11-13T08:26:35;4.07;;;3.40;;
9256;SDS011;4665;51.368;6.782;2022-11-13T08:29:02;5.57;;;3.80;;
9256;SDS011;4665;51.368;6.782;2022-11-13T08:31:27;4.43;;;3.63;;
9256;SDS011;4665;51.368;6.782;2022-11-13T08:33:52;3.67;;;3.37;;
9256;SDS011;4665;51.368;6.782;2022-11-13T08:36:18;3.90;;;3.20;;
9256;SDS011;4665;51.368;6.782;2022-11-13T08:38:43;4.03;;;3.63;;
9256;SDS011;4665;51.368;6.782;2022-11-13T08:41:09;4.20;;;3.90;;
9256;SDS011;4665;51.368;6.782;2022-11-13T08:43:34;3.80;;;3.50;;
9256;SDS011;4665;51.368;6.782;2022-11-13T08:46:00;3.83;;;3.53;;
9256;SDS011;4665;51.368;6.782;2022-11-13T08:48:25;4.03;;;3.67;;
9256;SDS011;4665;51.368;6.782;2022-11-13T08:50:52;5.67;;;4.50;;
9256;SDS011;4665;51.368;6.782;2022-11-13T08:53:18;4.83;;;4.33;;
9256;SDS011;4665;51.368;6.782;2022-11-13T08:55:44;5.70;;;5.20;;
9256;SDS011;4665;51.368;6.782;2022-11-13T08:58:09;5.40;;;4.90;;
9256;SDS011;4665;51.368;6.782;2022-11-13T09:00:35;5.07;;;4.67;;
9256;SDS011;4665;51.368;6.782;2022-11-13T09:03:00;6.20;;;5.60;;
9256;SDS011;4665;51.368;6.782;2022-11-13T09:05:26;5.97;;;4.57;;
9256;SDS011;4665;51.368;6.782;2022-11-13T09:07:54;6.60;;;5.60;;
9256;SDS011;4665;51.368;6.782;2022-11-13T09:10:21;5.43;;;4.93;;
9256;SDS011;4665;51.368;6.782;2022-11-13T09:12:47;5.10;;;4.63;;
9256;SDS011;4665;51.368;6.782;2022-11-13T09:15:12;5.10;;;4.70;;
9256;SDS011;4665;51.368;6.782;2022-11-13T09:17:37;4.40;;;4.00;;
9256;SDS011;4665;51.368;6.782;2022-11-13T09:20:03;4.17;;;3.83;;
9256;SDS011;4665;51.368;6.782;2022-11-13T09:22:33;4.37;;;3.87;;
9256;SDS011;4665;51.368;6.782;2022-11-13T09:24:59;4.10;;;3.80;;
9256;SDS011;4665;51.368;6.782;2022-11-13T09:27:24;4.90;;;4.00;;
9256;SDS011;4665;51.368;6.782;2022-11-13T09:29:49;4.17;;;3.43;;
9256;SDS011;4665;51.368;6.782;2022-11-13T09:32:15;3.80;;;3.50;;
9256;SDS011;4665;51.368;6.782;2022-11-13T09:34:41;3.70;;;3.40;;
9256;SDS011;4665;51.368;6.782;2022-11-13T09:37:06;3.40;;;3.13;;
9256;SDS011;4665;51.368;6.782;2022-11-13T09:39:32;3.50;;;3.20;;
9256;SDS011;4665;51.368;6.782;2022-11-13T09:41:59;3.37;;;3.07;;
9256;SDS011;4665;51.368;6.782;2022-11-13T09:44:37;3.93;;;3.53;;
9256;SDS011;4665;51.368;6.782;2022-11-13T09:47:12;3.30;;;3.00;;
9256;SDS011;4665;51.368;6.782;2022-11-13T09:49:48;3.40;;;3.10;;
9256;SDS011;4665;51.368;6.782;2022-11-13T09:52:32;3.40;;;3.20;;
9256;SDS011;4665;51.368;6.782;2022-11-13T09:55:01;3.23;;;3.03;;
9256;SDS011;4665;51.368;6.782;2022-11-13T10:00:27;3.20;;;2.90;;
9256;SDS011;4665;51.368;6.782;2022-11-13T10:03:39;3.60;;;2.77;;
9256;SDS011;4665;51.368;6.782;2022-11-13T10:11:39;5.13;;;3.10;;
9256;SDS011;4665;51.368;6.782;2022-11-13T10:14:14;3.67;;;3.37;;
9256;SDS011;4665;51.368;6.782;2022-11-13T10:16:48;3.40;;;3.10;;
9256;SDS011;4665;51.368;6.782;2022-11-13T10:21:58;3.50;;;3.20;;
9256;SDS011;4665;51.368;6.782;2022-11-13T10:24:34;3.33;;;3.00;;
9256;SDS011;4665;51.368;6.782;2022-11-13T10:27:07;3.03;;;2.80;;
9256;SDS011;4665;51.368;6.782;2022-11-13T10:29:34;4.40;;;3.10;;
9256;SDS011;4665;51.368;6.782;2022-11-13T10:32:00;3.00;;;2.70;;
9256;SDS011;4665;51.368;6.782;2022-11-13T10:34:45;3.10;;;2.90;;
9256;SDS011;4665;51.368;6.782;2022-11-13T10:38:04;3.03;;;2.73;;
9256;SDS011;4665;51.368;6.782;2022-11-13T10:40:31;2.93;;;2.73;;
9256;SDS011;4665;51.368;6.782;2022-11-13T10:45:39;2.80;;;2.60;;
9256;SDS011;4665;51.368;6.782;2022-11-13T10:48:19;2.73;;;2.53;;
9256;SDS011;4665;51.368;6.782;2022-11-13T10:51:14;3.57;;;2.67;;
9256;SDS011;4665;51.368;6.782;2022-11-13T10:53:53;3.20;;;2.90;;
9256;SDS011;4665;51.368;6.782;2022-11-13T10:56:32;4.13;;;2.93;;
9256;SDS011;4665;51.368;6.782;2022-11-13T10:58:59;3.00;;;2.70;;
9256;SDS011;4665;51.368;6.782;2022-11-13T11:01:34;3.57;;;2.70;;
9256;SDS011;4665;51.368;6.782;2022-11-13T11:04:02;3.03;;;2.80;;
9256;SDS011;4665;51.368;6.782;2022-11-13T11:06:35;2.87;;;2.67;;
9256;SDS011;4665;51.368;6.782;2022-11-13T11:09:07;2.87;;;2.67;;
9256;SDS011;4665;51.368;6.782;2022-11-13T11:17:23;2.97;;;2.37;;
9256;SDS011;4665;51.368;6.782;2022-11-13T11:19:58;2.60;;;2.40;;
9256;SDS011;4665;51.368;6.782;2022-11-13T11:22:28;3.10;;;2.50;;
9256;SDS011;4665;51.368;6.782;2022-11-13T11:24:59;3.10;;;2.37;;
9256;SDS011;4665;51.368;6.782;2022-11-13T11:27:43;2.20;;;2.00;;
9256;SDS011;4665;51.368;6.782;2022-11-13T11:30:19;3.93;;;2.30;;
9256;SDS011;4665;51.368;6.782;2022-11-13T11:35:37;2.77;;;2.50;;
9256;SDS011;4665;51.368;6.782;2022-11-13T11:40:43;2.87;;;2.23;;
9256;SDS011;4665;51.368;6.782;2022-11-13T11:45:59;2.63;;;2.43;;
9256;SDS011;4665;51.368;6.782;2022-11-13T11:48:26;3.90;;;3.00;;
9256;SDS011;4665;51.368;6.782;2022-11-13T12:09:39;3.10;;;2.80;;
9256;SDS011;4665;51.368;6.782;2022-11-13T12:18:50;4.63;;;3.20;;
9256;SDS011;4665;51.368;6.782;2022-11-13T12:23:51;4.00;;;3.60;;
9256;SDS011;4665;51.368;6.782;2022-11-13T12:26:24;3.40;;;3.10;;
9256;SDS011;4665;51.368;6.782;2022-11-13T12:29:02;4.17;;;3.50;;
9256;SDS011;4665;51.368;6.782;2022-11-13T12:31:48;4.40;;;3.10;;
9256;SDS011;4665;51.368;6.782;2022-11-13T12:34:36;3.50;;;3.20;;
9256;SDS011;4665;51.368;6.782;2022-11-13T12:37:12;3.63;;;3.30;;
9256;SDS011;4665;51.368;6.782;2022-11-13T12:47:43;4.13;;;3.70;;
9256;SDS011;4665;51.368;6.782;2022-11-13T12:50:23;3.90;;;3.50;;
9256;SDS011;4665;51.368;6.782;2022-11-13T12:53:03;3.83;;;3.53;;
9256;SDS011;4665;51.368;6.782;2022-11-13T12:55:32;4.30;;;3.90;;
9256;SDS011;4665;51.368;6.782;2022-11-13T12:58:19;6.00;;;4.23;;
9256;SDS011;4665;51.368;6.782;2022-11-13T13:06:12;4.60;;;4.17;;
9256;SDS011;4665;51.368;6.782;2022-11-13T13:16:35;4.80;;;3.90;;
9256;SDS011;4665;51.368;6.782;2022-11-13T13:19:05;5.50;;;4.50;;
9256;SDS011;4665;51.368;6.782;2022-11-13T13:21:52;4.87;;;4.17;;
9256;SDS011;4665;51.368;6.782;2022-11-13T13:24:33;5.00;;;4.40;;
9256;SDS011;4665;51.368;6.782;2022-11-13T13:27:01;7.27;;;5.37;;
9256;SDS011;4665;51.368;6.782;2022-11-13T13:29:44;5.33;;;4.83;;
9256;SDS011;4665;51.368;6.782;2022-11-13T13:32:25;4.70;;;4.20;;
9256;SDS011;4665;51.368;6.782;2022-11-13T13:38:12;5.73;;;4.20;;
9256;SDS011;4665;51.368;6.782;2022-11-13T13:46:25;3.90;;;3.60;;
9256;SDS011;4665;51.368;6.782;2022-11-13T13:48:55;4.43;;;3.83;;
9256;SDS011;4665;51.368;6.782;2022-11-13T13:54:06;4.23;;;3.40;;
9256;SDS011;4665;51.368;6.782;2022-11-13T13:56:38;4.53;;;3.73;;
9256;SDS011;4665;51.368;6.782;2022-11-13T13:59:09;6.17;;;4.17;;
9256;SDS011;4665;51.368;6.782;2022-11-13T14:01:40;8.67;;;4.43;;
9256;SDS011;4665;51.368;6.782;2022-11-13T14:04:27;3.90;;;3.50;;
9256;SDS011;4665;51.368;6.782;2022-11-13T14:06:53;5.10;;;4.33;;
9256;SDS011;4665;51.368;6.782;2022-11-13T14:09:22;5.63;;;4.30;;
9256;SDS011;4665;51.368;6.782;2022-11-13T14:12:02;4.43;;;4.03;;
9256;SDS011;4665;51.368;6.782;2022-11-13T14:14:29;6.83;;;4.13;;
9256;SDS011;4665;51.368;6.782;2022-11-13T14:16:56;6.33;;;4.30;;
9256;SDS011;4665;51.368;6.782;2022-11-13T14:19:23;4.87;;;4.00;;
9256;SDS011;4665;51.368;6.782;2022-11-13T14:21:53;5.13;;;3.97;;
9256;SDS011;4665;51.368;6.782;2022-11-13T14:26:54;4.17;;;3.60;;
9256;SDS011;4665;51.368;6.782;2022-11-13T14:32:05;3.50;;;3.20;;
9256;SDS011;4665;51.368;6.782;2022-11-13T14:34:36;4.33;;;3.93;;
9256;SDS011;4665;51.368;6.782;2022-11-13T14:37:07;9.60;;;4.20;;
9256;SDS011;4665;51.368;6.782;2022-11-13T14:39:49;4.87;;;3.40;;
9256;SDS011;4665;51.368;6.782;2022-11-13T14:42:18;4.20;;;3.80;;
9256;SDS011;4665;51.368;6.782;2022-11-13T14:44:46;3.73;;;3.43;;
9256;SDS011;4665;51.368;6.782;2022-11-13T14:47:19;3.60;;;3.30;;
9256;SDS011;4665;51.368;6.782;2022-11-13T14:49:45;3.80;;;3.50;;
9256;SDS011;4665;51.368;6.782;2022-11-13T14:52:24;5.07;;;3.43;;
9256;SDS011;4665;51.368;6.782;2022-11-13T14:55:01;3.90;;;3.57;;
9256;SDS011;4665;51.368;6.782;2022-11-13T14:57:28;3.90;;;3.57;;
9256;SDS011;4665;51.368;6.782;2022-11-13T14:59:54;3.10;;;2.90;;
9256;SDS011;4665;51.368;6.782;2022-11-13T15:02:19;6.63;;;3.40;;
9256;SDS011;4665;51.368;6.782;2022-11-13T15:04:45;3.97;;;3.50;;
9256;SDS011;4665;51.368;6.782;2022-11-13T15:10:08;4.30;;;3.83;;
9256;SDS011;4665;51.368;6.782;2022-11-13T15:12:39;5.73;;;3.57;;
9256;SDS011;4665;51.368;6.782;2022-11-13T15:15:05;4.73;;;3.40;;
9256;SDS011;4665;51.368;6.782;2022-11-13T15:17:33;3.83;;;3.17;;
9256;SDS011;4665;51.368;6.782;2022-11-13T15:19:59;3.17;;;2.93;;
9256;SDS011;4665;51.368;6.782;2022-11-13T15:22:25;3.30;;;3.00;;
9256;SDS011;4665;51.368;6.782;2022-11-13T15:24:50;5.13;;;3.70;;
9256;SDS011;4665;51.368;6.782;2022-11-13T15:27:16;3.60;;;3.13;;
9256;SDS011;4665;51.368;6.782;2022-11-13T15:29:42;3.47;;;2.97;;
9256;SDS011;4665;51.368;6.782;2022-11-13T15:32:12;3.80;;;3.50;;
9256;SDS011;4665;51.368;6.782;2022-11-13T15:34:39;3.00;;;2.77;;
9256;SDS011;4665;51.368;6.782;2022-11-13T15:37:12;3.70;;;3.17;;
9256;SDS011;4665;51.368;6.782;2022-11-13T15:39:39;4.87;;;2.97;;
9256;SDS011;4665;51.368;6.782;2022-11-13T15:42:06;4.00;;;3.37;;
9256;SDS011;4665;51.368;6.782;2022-11-13T15:44:35;3.63;;;3.27;;
9256;SDS011;4665;51.368;6.782;2022-11-13T15:47:01;5.13;;;4.30;;
9256;SDS011;4665;51.368;6.782;2022-11-13T15:49:26;8.23;;;6.30;;
9256;SDS011;4665;51.368;6.782;2022-11-13T15:51:52;6.97;;;5.70;;
9256;SDS011;4665;51.368;6.782;2022-11-13T15:54:27;4.97;;;4.37;;
9256;SDS011;4665;51.368;6.782;2022-11-13T15:57:01;4.50;;;4.13;;
9256;SDS011;4665;51.368;6.782;2022-11-13T15:59:27;5.10;;;4.63;;
9256;SDS011;4665;51.368;6.782;2022-11-13T16:04:45;6.30;;;4.63;;
9256;SDS011;4665;51.368;6.782;2022-11-13T16:07:34;5.73;;;4.27;;
9256;SDS011;4665;51.368;6.782;2022-11-13T16:09:59;4.53;;;4.10;;
9256;SDS011;4665;51.368;6.782;2022-11-13T16:12:25;5.20;;;4.37;;
9256;SDS011;4665;51.368;6.782;2022-11-13T16:14:50;5.47;;;4.57;;
9256;SDS011;4665;51.368;6.782;2022-11-13T16:17:16;4.70;;;4.30;;
9256;SDS011;4665;51.368;6.782;2022-11-13T16:19:45;4.50;;;4.10;;
9256;SDS011;4665;51.368;6.782;2022-11-13T16:22:19;5.10;;;4.50;;
9256;SDS011;4665;51.368;6.782;2022-11-13T16:25:07;5.17;;;4.70;;
9256;SDS011;4665;51.368;6.782;2022-11-13T16:27:35;4.97;;;4.37;;
9256;SDS011;4665;51.368;6.782;2022-11-13T16:30:01;6.07;;;4.90;;
9256;SDS011;4665;51.368;6.782;2022-11-13T16:32:27;4.77;;;4.37;;
9256;SDS011;4665;51.368;6.782;2022-11-13T16:34:53;4.97;;;4.40;;
9256;SDS011;4665;51.368;6.782;2022-11-13T16:37:24;5.50;;;4.90;;
9256;SDS011;4665;51.368;6.782;2022-11-13T16:39:52;5.27;;;4.77;;
9256;SDS011;4665;51.368;6.782;2022-11-13T16:42:18;5.23;;;4.73;;
9256;SDS011;4665;51.368;6.782;2022-11-13T16:44:43;7.53;;;5.07;;
9256;SDS011;4665;51.368;6.782;2022-11-13T16:47:22;4.90;;;4.40;;
9256;SDS011;4665;51.368;6.782;2022-11-13T16:49:49;5.60;;;5.10;;
9256;SDS011;4665;51.368;6.782;2022-11-13T16:52:15;6.73;;;5.73;;
9256;SDS011;4665;51.368;6.782;2022-11-13T16:54:40;6.00;;;5.40;;
9256;SDS011;4665;51.368;6.782;2022-11-13T16:57:10;6.37;;;5.77;;
9256;SDS011;4665;51.368;6.782;2022-11-13T16:59:36;13.17;;;11.87;;
9256;SDS011;4665;51.368;6.782;2022-11-13T17:02:02;11.17;;;9.97;;
9256;SDS011;4665;51.368;6.782;2022-11-13T17:04:29;10.63;;;9.53;;
9256;SDS011;4665;51.368;6.782;2022-11-13T17:06:54;8.30;;;7.50;;